createdAt,value
2019-04-11T00:02:57.393Z,55.62
2019-04-11T00:06:01.407Z,55.48
2019-04-11T00:09:10.201Z,55.82
2019-04-11T00:12:14.526Z,55.43
2019-04-11T00:15:18.201Z,56.17
2019-04-11T00:18:22.782Z,56.63
2019-04-11T00:21:26.697Z,56.87
2019-04-11T00:24:31.363Z,56.49
2019-04-11T00:27:35.133Z,56.47
2019-04-11T00:30:39.909Z,56.49
2019-04-11T00:33:44.538Z,56.87
2019-04-11T00:36:48.502Z,56.57
2019-04-11T00:39:52.153Z,57.12
2019-04-11T00:42:56.115Z,57.46
2019-04-11T00:46:00.154Z,57.73
2019-04-11T00:49:06.208Z,58.17
2019-04-11T00:52:09.857Z,58.03
2019-04-11T00:55:13.432Z,57.93
2019-04-11T00:58:17.208Z,58.38
2019-04-11T01:01:21.684Z,58.08
2019-04-11T01:04:25.568Z,57.98
2019-04-11T01:07:29.167Z,58.52
2019-04-11T01:10:32.761Z,58.80
2019-04-11T01:13:44.368Z,58.67
2019-04-11T01:16:52.675Z,58.50
2019-04-11T01:19:57.260Z,58.61
2019-04-11T01:23:01.056Z,59.10
2019-04-11T01:26:05.298Z,59.27
2019-04-11T01:29:09.285Z,59.73
2019-04-11T01:32:13.876Z,59.50
2019-04-11T01:35:17.466Z,59.30
2019-04-11T01:38:22.743Z,59.48
2019-04-11T01:41:26.696Z,59.33
2019-04-11T01:44:30.478Z,59.29
2019-04-11T01:47:44.828Z,59.00
2019-04-11T01:50:50.774Z,59.01
2019-04-11T01:53:55.428Z,59.10
2019-04-11T01:56:59.239Z,59.58
2019-04-11T02:00:03.831Z,59.64
2019-04-11T02:03:09.352Z,59.78
2019-04-11T02:06:13.885Z,59.63
2019-04-11T02:09:17.598Z,60.30
2019-04-11T02:12:22.416Z,60.30
2019-04-11T02:15:28.156Z,59.91
2019-04-11T02:18:31.804Z,60.08
2019-04-11T02:21:35.958Z,60.08
2019-04-11T02:24:41.728Z,60.89
2019-04-11T02:27:46.290Z,61.06
2019-04-11T02:30:53.511Z,61.19
2019-04-11T02:33:57.305Z,61.58
2019-04-11T02:37:02.392Z,61.62
2019-04-11T02:40:11.037Z,61.62
2019-04-11T02:43:15.962Z,62.01
2019-04-11T02:46:32.281Z,62.30
2019-04-11T02:49:27.768Z,62.09
2019-04-11T02:52:31.460Z,62.46
2019-04-11T02:55:35.806Z,62.46
2019-04-11T02:58:40.256Z,62.13
2019-04-11T03:01:44.073Z,62.41
2019-04-11T03:04:48.249Z,62.41
2019-04-11T03:07:51.897Z,62.65
2019-04-11T03:10:56.139Z,62.84
2019-04-11T03:14:03.829Z,62.84
2019-04-11T03:17:16.391Z,62.93
2019-04-11T03:20:23.014Z,63.25
2019-04-11T03:23:20.648Z,63.56
2019-04-11T03:26:23.151Z,63.64
2019-04-11T03:29:28.841Z,63.52
2019-04-11T03:33:18.648Z,63.92
2019-04-11T03:39:05.681Z,64.14
2019-04-11T03:42:07.447Z,64.40
2019-04-11T03:45:15.287Z,64.48
2019-04-11T03:48:12.552Z,64.62
2019-04-11T03:51:05.928Z,64.50
2019-04-11T03:54:11.472Z,64.51
2019-04-11T03:57:17.260Z,64.51
2019-04-11T04:00:21.639Z,64.62
2019-04-11T04:03:27.269Z,64.90
2019-04-11T04:06:33.038Z,64.92
2019-04-11T04:09:37.403Z,64.71
2019-04-11T04:12:43.123Z,64.52
2019-04-11T04:16:00.151Z,64.83
2019-04-11T04:18:57.050Z,65.00
2019-04-11T04:22:10.997Z,65.07
2019-04-11T04:25:14.620Z,65.01
2019-04-11T04:28:19.110Z,65.05
2019-04-11T04:31:24.428Z,65.06
2019-04-11T04:34:28.567Z,64.73
2019-04-11T04:37:34.763Z,64.84
2019-04-11T04:40:50.929Z,64.64
2019-04-11T04:43:45.081Z,64.65
2019-04-11T04:47:00.167Z,64.32
2019-04-11T04:49:54.355Z,64.06
2019-04-11T04:52:58.652Z,63.46
2019-04-11T04:56:03.272Z,62.71
2019-04-11T04:59:07.590Z,62.00
2019-04-11T05:02:12.956Z,61.60
2019-04-11T05:05:17.859Z,61.13
2019-04-11T05:08:24.874Z,59.79
2019-04-11T05:11:28.563Z,57.44
2019-04-11T05:14:32.166Z,57.44
2019-04-11T05:17:36.279Z,57.57
2019-04-11T05:20:40.726Z,56.76
2019-04-11T05:23:44.256Z,54.69
2019-04-11T05:26:48.168Z,54.29
2019-04-11T05:29:53.548Z,54.15
2019-04-11T05:32:57.741Z,53.92
2019-04-11T05:36:01.426Z,54.39
2019-04-11T05:39:06.819Z,54.14
2019-04-11T05:42:11.255Z,54.13
2019-04-11T05:45:20.747Z,52.78
2019-04-11T05:48:41.028Z,53.49
2019-04-11T05:51:47.582Z,52.41
2019-04-11T05:54:52.832Z,53.84
2019-04-11T05:57:58.636Z,53.28
2019-04-11T06:01:12.654Z,53.14
2019-04-11T06:04:21.913Z,51.28
2019-04-11T06:07:29.442Z,52.03
2019-04-11T06:10:43.508Z,52.27
2019-04-11T06:13:50.981Z,51.83
2019-04-11T06:16:57.516Z,50.88
2019-04-11T06:20:12.601Z,49.69
2019-04-11T06:23:21.299Z,49.55
2019-04-11T06:26:32.396Z,51.76
2019-04-11T06:29:37.665Z,51.46
2019-04-11T06:32:56.285Z,50.25
2019-04-11T06:36:02.145Z,50.57
2019-04-11T06:39:27.514Z,48.60
2019-04-11T06:42:35.703Z,48.21
2019-04-11T06:45:57.039Z,46.09
2019-04-11T06:49:02.451Z,48.71
2019-04-11T06:52:10.773Z,46.36
2019-04-11T06:55:16.312Z,47.19
2019-04-11T06:58:21.599Z,46.35
2019-04-11T07:01:27.886Z,46.89
2019-04-11T07:04:42.406Z,45.84
2019-04-11T07:07:50.023Z,44.83
2019-04-11T07:10:55.301Z,46.60
2019-04-11T07:14:00.481Z,48.08
2019-04-11T07:17:22.958Z,46.65
2019-04-11T07:20:43.630Z,45.88
2019-04-11T07:24:05.381Z,43.70
2019-04-11T07:27:11.606Z,41.95
2019-04-11T07:30:25.178Z,42.67
2019-04-11T07:33:31.031Z,41.93
2019-04-11T07:36:53.634Z,42.99
2019-04-11T07:40:15.542Z,42.87
2019-04-11T07:43:19.573Z,44.73
2019-04-11T07:46:32.962Z,43.58
2019-04-11T07:49:44.968Z,43.56
2019-04-11T07:52:50.246Z,43.06
2019-04-11T07:55:55.425Z,39.63
2019-04-11T07:59:03.450Z,39.00
2019-04-11T08:02:08.842Z,40.33
2019-04-11T08:05:30.662Z,39.76
2019-04-11T08:08:41.537Z,40.88
2019-04-11T08:11:49.897Z,38.94
2019-04-11T08:14:55.111Z,39.80
2019-04-11T08:18:00.254Z,39.57
2019-04-11T08:21:21.944Z,39.83
2019-04-11T08:24:34.351Z,40.38
2019-04-11T08:28:00.715Z,40.33
2019-04-11T08:31:19.937Z,39.05
2019-04-11T08:34:24.357Z,37.76
2019-04-11T08:37:37.700Z,38.11
2019-04-11T08:40:43.069Z,37.87
2019-04-11T08:43:47.673Z,39.45
2019-04-11T08:46:53.934Z,39.55
2019-04-11T08:49:58.445Z,40.77
2019-04-11T08:53:18.702Z,38.39
2019-04-11T08:56:23.154Z,37.25
2019-04-11T08:59:45.829Z,38.48
2019-04-11T09:02:51.447Z,40.88
2019-04-11T09:05:57.936Z,41.61
2019-04-11T09:09:03.154Z,41.91
2019-04-11T09:12:08.547Z,39.37
2019-04-11T09:15:21.044Z,38.73
2019-04-11T09:18:25.936Z,39.94
2019-04-11T09:21:48.681Z,43.27
2019-04-11T09:24:56.961Z,42.86
2019-04-11T09:28:07.643Z,44.38
2019-04-11T09:31:25.496Z,44.78
2019-04-11T09:34:33.808Z,45.07
2019-04-11T09:37:37.885Z,45.80
2019-04-11T09:40:43.775Z,44.23
2019-04-11T09:43:48.378Z,44.70
2019-04-11T09:47:10.995Z,45.79
2019-04-11T09:50:16.544Z,45.00
2019-04-11T09:53:20.758Z,45.26
2019-04-11T09:56:43.018Z,44.57
2019-04-11T09:59:58.211Z,44.27
2019-04-11T10:03:03.542Z,44.27
2019-04-11T10:06:14.261Z,45.09
2019-04-11T10:09:17.864Z,45.10
2019-04-11T10:12:42.536Z,46.16
2019-04-11T10:16:07.426Z,45.65
2019-04-11T10:19:13.849Z,45.28
2019-04-11T10:22:32.107Z,45.69
2019-04-11T10:25:37.356Z,46.16
2019-04-11T10:28:48.064Z,46.60
2019-04-11T10:31:53.220Z,45.35
2019-04-11T10:35:14.264Z,44.95
2019-04-11T10:38:20.402Z,43.57
2019-04-11T10:41:32.570Z,42.54
2019-04-11T10:44:54.070Z,42.73
2019-04-11T10:47:57.810Z,41.94
2019-04-11T10:51:20.538Z,42.43
2019-04-11T10:54:25.954Z,41.65
2019-04-11T10:57:31.958Z,41.47
2019-04-11T11:00:37.612Z,43.51
2019-04-11T11:03:45.543Z,43.05
2019-04-11T11:06:51.721Z,43.55
2019-04-11T11:10:03.126Z,42.35
2019-04-11T11:13:25.607Z,41.72
2019-04-11T11:16:32.635Z,41.63
2019-04-11T11:20:07.782Z,40.59
2019-04-11T11:23:00.192Z,39.89
2019-04-11T11:26:05.363Z,40.04
2019-04-11T11:29:15.177Z,40.01
2019-04-11T11:32:16.775Z,38.35
2019-04-11T11:35:26.056Z,37.12
2019-04-11T11:38:28.769Z,36.49
2019-04-11T11:41:49.873Z,37.76
2019-04-11T11:45:04.214Z,40.80
2019-04-11T11:48:28.006Z,41.95
2019-04-11T11:51:37.361Z,42.38
2019-04-11T11:54:43.883Z,42.29
2019-04-11T11:57:53.033Z,42.60
2019-04-11T12:01:01.144Z,40.66
2019-04-11T12:04:24.156Z,41.49
2019-04-11T12:07:36.105Z,42.52
2019-04-11T12:10:45.880Z,42.42
2019-04-11T12:14:04.067Z,42.71
2019-04-11T12:17:29.311Z,42.85
2019-04-11T12:20:44.410Z,42.92
2019-04-11T12:24:03.733Z,41.26
2019-04-11T12:27:09.920Z,41.26
2019-04-11T12:30:15.762Z,41.26
2019-04-11T12:33:29.942Z,41.28
2019-04-11T12:36:35.130Z,41.51
2019-04-11T12:39:40.255Z,41.78
2019-04-11T12:42:46.025Z,42.51
2019-04-11T12:46:07.548Z,42.37
2019-04-11T12:49:27.764Z,41.50
2019-04-11T12:52:38.662Z,42.04
2019-04-11T12:55:43.854Z,41.57
2019-04-11T12:58:49.017Z,41.53
2019-04-11T13:02:12.716Z,41.48
2019-04-11T13:05:19.957Z,40.93
2019-04-11T13:08:41.428Z,40.92
2019-04-11T13:11:46.585Z,41.91
2019-04-11T13:14:51.741Z,42.57
2019-04-11T13:18:02.893Z,43.09
2019-04-11T13:21:10.440Z,42.78
2019-04-11T13:24:33.578Z,42.30
2019-04-11T13:27:38.742Z,42.45
2019-04-11T13:30:50.306Z,41.88
2019-04-11T13:33:55.468Z,40.99
2019-04-11T13:37:16.722Z,40.72
2019-04-11T13:40:31.833Z,41.13
2019-04-11T13:43:41.004Z,40.57
2019-04-11T13:46:49.081Z,40.66
2019-04-11T13:49:54.551Z,41.53
2019-04-11T13:53:16.046Z,41.20
2019-04-11T13:56:24.005Z,40.14
2019-04-11T13:59:35.387Z,40.31
2019-04-11T14:02:51.410Z,40.40
2019-04-11T14:05:51.928Z,40.79
2019-04-11T14:09:01.495Z,40.32
2019-04-11T14:12:09.115Z,40.24
2019-04-11T14:15:23.673Z,39.66
2019-04-11T14:18:28.826Z,39.66
2019-04-11T14:21:33.065Z,38.77
2019-04-11T14:24:42.406Z,39.03
2019-04-11T14:27:47.565Z,39.93
2019-04-11T14:30:52.762Z,40.92
2019-04-11T14:33:58.005Z,42.62
2019-04-11T14:37:09.200Z,42.43
2019-04-11T14:40:14.875Z,42.78
2019-04-11T14:43:22.872Z,43.12
2019-04-11T14:46:44.695Z,42.76
2019-04-11T14:49:49.871Z,42.21
2019-04-11T14:53:07.346Z,41.78
2019-04-11T14:56:22.199Z,40.76
2019-04-11T14:59:28.156Z,41.97
2019-04-11T15:02:49.232Z,41.70
2019-04-11T15:06:00.252Z,40.99
2019-04-11T15:09:10.148Z,40.94
2019-04-11T15:12:22.445Z,40.77
2019-04-11T15:15:36.682Z,39.63
2019-04-11T15:18:42.220Z,40.68
2019-04-11T15:21:53.537Z,40.97
2019-04-11T15:25:08.641Z,42.25
2019-04-11T15:28:13.854Z,42.35
2019-04-11T15:31:21.876Z,42.48
2019-04-11T15:34:29.552Z,41.60
2019-04-11T15:37:39.774Z,41.79
2019-04-11T15:40:44.172Z,41.42
2019-04-11T15:44:05.693Z,41.75
2019-04-11T15:47:19.537Z,41.62
2019-04-11T15:50:39.036Z,41.32
2019-04-11T15:53:51.279Z,41.79
2019-04-11T15:57:12.249Z,42.41
2019-04-11T16:00:22.217Z,41.98
2019-04-11T16:03:25.918Z,41.94
2019-04-11T16:06:34.758Z,42.27
2019-04-11T16:09:36.431Z,42.23
2019-04-11T16:12:53.266Z,42.47
2019-04-11T16:16:06.592Z,42.25
2019-04-11T16:19:22.271Z,40.95
2019-04-11T16:22:43.811Z,41.09
2019-04-11T16:25:49.022Z,41.72
2019-04-11T16:29:00.449Z,40.69
2019-04-11T16:32:09.113Z,40.78
2019-04-11T16:35:33.039Z,41.26
2019-04-11T16:38:37.439Z,41.63
2019-04-11T16:41:57.837Z,40.92
2019-04-11T16:45:12.236Z,41.55
2019-04-11T16:48:16.035Z,41.28
2019-04-11T16:51:30.376Z,41.10
2019-04-11T16:54:24.961Z,40.76
2019-04-11T16:57:28.569Z,41.11
2019-04-11T17:00:32.273Z,40.43
2019-04-11T17:03:35.845Z,40.37
2019-04-11T17:06:41.035Z,40.08
2019-04-11T17:09:51.841Z,39.56
2019-04-11T17:12:56.051Z,40.17
2019-04-11T17:16:01.281Z,40.71
2019-04-11T17:19:05.566Z,40.79
2019-04-11T17:22:09.987Z,41.34
2019-04-11T17:25:13.855Z,41.22
2019-04-11T17:28:17.489Z,41.72
2019-04-11T17:31:21.112Z,41.87
2019-04-11T17:34:24.688Z,42.15
2019-04-11T17:37:28.217Z,42.19
2019-04-11T17:40:31.801Z,42.96
2019-04-11T17:43:35.429Z,43.39
2019-04-11T17:46:38.979Z,43.60
2019-04-11T17:49:42.518Z,43.74
2019-04-11T17:52:46.126Z,44.00
2019-04-11T17:55:52.041Z,44.45
2019-04-11T17:58:57.692Z,44.24
2019-04-11T18:02:00.386Z,44.71
2019-04-11T18:05:05.030Z,45.14
2019-04-11T18:08:08.587Z,46.00
2019-04-11T18:11:12.248Z,46.30
2019-04-11T18:14:15.903Z,46.12
2019-04-11T18:17:19.433Z,46.17
2019-04-11T18:20:23.143Z,46.45
2019-04-11T18:23:26.822Z,46.65
2019-04-11T18:26:30.370Z,46.92
2019-04-11T18:29:33.899Z,47.18
2019-04-11T18:32:37.492Z,47.31
2019-04-11T18:35:41.089Z,47.38
2019-04-11T18:38:44.785Z,48.40
2019-04-11T18:41:48.399Z,49.86
2019-04-11T18:44:51.907Z,48.46
2019-04-11T18:47:55.606Z,47.79
2019-04-11T18:50:59.280Z,47.64
2019-04-11T18:54:03.010Z,47.47
2019-04-11T18:57:06.937Z,48.10
2019-04-11T19:00:13.452Z,48.19
2019-04-11T19:03:17.329Z,49.61
2019-04-11T19:06:27.769Z,48.12
2019-04-11T19:09:26.289Z,48.00
2019-04-11T19:12:29.995Z,48.23
2019-04-11T19:15:33.679Z,49.26
2019-04-11T19:18:37.244Z,48.58
2019-04-11T19:21:40.780Z,47.96
2019-04-11T19:24:44.469Z,48.07
2019-04-11T19:27:53.318Z,48.01
2019-04-11T19:30:53.923Z,48.37
2019-04-11T19:34:04.417Z,48.71
2019-04-11T19:37:11.785Z,47.76
2019-04-11T19:40:16.169Z,47.23
2019-04-11T19:43:19.662Z,47.62
2019-04-11T19:46:23.428Z,48.81
2019-04-11T19:49:28.988Z,47.65
2019-04-11T19:52:45.032Z,48.13
2019-04-11T19:55:52.243Z,47.72
2019-04-11T19:58:55.868Z,48.10
2019-04-11T20:01:59.421Z,47.94
2019-04-11T20:05:03.570Z,48.21
2019-04-11T20:08:07.227Z,47.82
2019-04-11T20:11:10.865Z,48.19
2019-04-11T20:14:14.439Z,47.61
2019-04-11T20:17:19.296Z,47.00
2019-04-11T20:20:23.459Z,46.40
2019-04-11T20:23:27.252Z,46.14
2019-04-11T20:26:30.995Z,46.28
2019-04-11T20:29:34.754Z,46.29
2019-04-11T20:32:38.340Z,46.54
2019-04-11T20:35:41.875Z,46.26
2019-04-11T20:38:45.631Z,45.46
2019-04-11T20:41:53.202Z,45.35
2019-04-11T20:44:58.240Z,44.74
2019-04-11T20:48:00.845Z,44.60
2019-04-11T20:51:04.514Z,45.17
2019-04-11T20:54:08.110Z,45.09
2019-04-11T20:57:12.067Z,45.29
2019-04-11T21:00:16.578Z,45.24
2019-04-11T21:03:20.134Z,44.92
2019-04-11T21:06:23.785Z,44.48
2019-04-11T21:09:27.338Z,44.22
2019-04-11T21:12:30.952Z,44.60
2019-04-11T21:15:34.508Z,44.76
2019-04-11T21:18:38.078Z,44.37
2019-04-11T21:21:41.700Z,44.19
2019-04-11T21:24:45.233Z,44.69
2019-04-11T21:27:48.871Z,44.43
2019-04-11T21:30:52.472Z,44.82
2019-04-11T21:33:56.067Z,45.32
2019-04-11T21:37:01.706Z,45.61
2019-04-11T21:40:07.109Z,46.20
2019-04-11T21:43:10.708Z,46.47
2019-04-11T21:46:14.302Z,46.72
2019-04-11T21:49:17.911Z,46.36
2019-04-11T21:52:21.417Z,46.66
2019-04-11T21:55:25.022Z,46.86
2019-04-11T21:58:28.622Z,46.91
2019-04-11T22:01:33.461Z,47.16
2019-04-11T22:04:37.017Z,46.91
2019-04-11T22:07:40.683Z,46.37
2019-04-11T22:10:44.321Z,46.57
2019-04-11T22:13:47.947Z,46.56
2019-04-11T22:16:51.554Z,46.41
2019-04-11T22:19:55.189Z,46.68
2019-04-11T22:22:58.717Z,47.19
2019-04-11T22:26:02.285Z,47.44
2019-04-11T22:29:05.974Z,47.78
2019-04-11T22:32:09.613Z,47.50
2019-04-11T22:35:13.228Z,47.74
2019-04-11T22:38:16.854Z,48.50
2019-04-11T22:41:20.440Z,48.32
2019-04-11T22:44:24.020Z,48.60
2019-04-11T22:47:27.599Z,49.71
2019-04-11T22:50:31.326Z,50.53
2019-04-11T22:53:35.035Z,50.90
2019-04-11T22:56:41.560Z,51.63
2019-04-11T22:59:44.921Z,52.03
2019-04-11T23:02:52.886Z,52.80
2019-04-11T23:05:58.012Z,53.16
2019-04-11T23:09:01.658Z,53.34
2019-04-11T23:12:05.392Z,54.05
2019-04-11T23:15:09.124Z,54.25
2019-04-11T23:18:14.048Z,54.94
2019-04-11T23:21:18.104Z,55.03
2019-04-11T23:24:21.743Z,55.29
2019-04-11T23:27:25.944Z,55.41
2019-04-11T23:30:29.752Z,55.69
2019-04-11T23:33:33.522Z,55.85
2019-04-11T23:36:37.086Z,56.08
2019-04-11T23:39:40.626Z,56.15
2019-04-11T23:42:44.177Z,56.04
2019-04-11T23:45:50.972Z,56.77
2019-04-11T23:48:55.562Z,57.36
2019-04-11T23:51:59.007Z,57.53
2019-04-11T23:55:02.590Z,57.63
2019-04-11T23:58:06.374Z,58.15
